Veersedijk — PBCX — position and weather

sailwx.info

Track history (hours):
 
Tides and Currents Weather Stations Pressure Air Temp Water Temp Dewpoint Dewpoint Depression Visibility Wind Speed Wind Dir Waves Ship Positions

Veersedijk

Last reported at 2017-Oct-19 13:22 UTC. Time now 2017-Oct-19 15:14 UTC.
Position N 50°38' E 000°51'.

Length 132 m; draft 5.2 m.

Type: Cargo ship. MMSI: 244268000.

Date/timePositionNaut miles runAvg speedWind from/ knotsBaromVisibWave heightAir tempDewpointWater temp
2017-Oct-19 13:22N 50°38' E 000°51'0 0.1
2017-Oct-19 12:04N 50°38' E 000°51'3 1.3
2017-Oct-19 09:49N 50°35' E 000°49'5 2.4
2017-Oct-19 07:46N 50°30' E 000°50'1 1.7
2017-Oct-19 07:26N 50°30' E 000°49'0 0.1
2017-Oct-19 06:31N 50°30' E 000°49'0 2.3
2017-Oct-19 06:28N 50°30' E 000°49'2 2.2
2017-Oct-19 05:47N 50°28' E 000°49'5 0.1
2017-Oct-17 14:39N 50°30' E 000°40'2 0.4
2017-Oct-17 10:08N 50°32' E 000°40'7 5.3
2017-Oct-17 08:55N 50°35' E 000°48'2 1.7
2017-Oct-17 07:26N 50°34' E 000°45'1 1.3
2017-Oct-17 06:47N 50°33' E 000°44'48 2.2
2017-Oct-16 09:15N 50°10' W 000°22'0 1.6
2017-Oct-16 08:57N 50°10' W 000°22'0 0.8
2017-Oct-16 08:29N 50°10' W 000°23'0 0.5
2017-Oct-16 07:46N 50°10' W 000°23'2 6.8
2017-Oct-16 07:29N 50°08' W 000°21'0 0.8
2017-Oct-16 07:01N 50°08' W 000°21'0 0.6
2017-Oct-16 06:30N 50°08' W 000°22'4 2.3
2017-Oct-16 04:34N 50°07' W 000°15'0 0.4
2017-Oct-16 04:30N 50°07' W 000°15'4 1.2
2017-Oct-16 01:22N 50°11' W 000°15'2 1.5
2017-Oct-15 23:41N 50°13' W 000°13'0 1.5
2017-Oct-15 23:23N 50°13' W 000°13'1 1.4
2017-Oct-15 23:00N 50°13' W 000°12'1 1.5
2017-Oct-15 22:30N 50°14' W 000°11'1 1.7
2017-Oct-15 22:00N 50°15' W 000°11'1 1.9
2017-Oct-15 21:26N 50°15' W 000°09'3 6.6
2017-Oct-15 21:00N 50°17' W 000°06'3 6.0
2017-Oct-15 20:28N 50°20' W 000°04'3 6.2
2017-Oct-15 20:00N 50°23' W 000°04'3 5.9
2017-Oct-15 19:31N 50°26' W 000°02'3 5.5
2017-Oct-15 18:59N 50°28' W 000°01'2 4.3
2017-Oct-15 18:29N 50°30' W 000°00'1 1.8
2017-Oct-15 18:00N 50°30' W 000°02'0 1.0
2017-Oct-15 17:31N 50°30' W 000°02'1 2.5
2017-Oct-15 17:00N 50°30' W 000°04'1 2.3
2017-Oct-15 16:30N 50°31' W 000°03'0 0.9
2017-Oct-15 16:00N 50°31' W 000°04'1 1.7
2017-Oct-15 15:30N 50°31' W 000°05'1 2.1
2017-Oct-15 15:00N 50°31' W 000°07'3 2.7
2017-Oct-15 14:00N 50°28' W 000°05'1 2.3
2017-Oct-15 13:30N 50°28' W 000°03'0 0.9
2017-Oct-15 13:00N 50°28' W 000°03'1 3.0
2017-Oct-15 12:30N 50°29' W 000°01'3 5.5
2017-Oct-15 12:00N 50°27' W 000°04'1 1.6
2017-Oct-15 11:23N 50°27' W 000°03'0 0.9
2017-Oct-15 11:00N 50°27' W 000°03'1 2.6
2017-Oct-15 10:30N 50°28' W 000°01'1 2.3
2017-Oct-15 10:00N 50°27' E 000°00'2 3.6
2017-Oct-15 09:22N 50°26' E 000°04'1 1.4
2017-Oct-15 08:42N 50°26' E 000°05'0 1.7
2017-Oct-15 08:28N 50°26' E 000°05'0 0.6
2017-Oct-15 07:56N 50°25' E 000°05'1 1.8
2017-Oct-15 07:30N 50°26' E 000°04'1 2.6
2017-Oct-15 07:00N 50°25' E 000°06'0 0.6
2017-Oct-15 06:28N 50°25' E 000°05'0 0.8
2017-Oct-15 06:00N 50°24' E 000°05'0 0.9
2017-Oct-15 05:28N 50°24' E 000°05'1 0.9
2017-Oct-15 04:48N 50°24' E 000°06'0 1.2
2017-Oct-15 04:29N 50°24' E 000°06'3 2.1
2017-Oct-15 03:06N 50°25' E 000°11'0 1.3
2017-Oct-15 02:47N 50°25' E 000°11'17 2.7
2017-Oct-14 20:18N 50°32' E 000°36'5 4.4
2017-Oct-14 19:07N 50°34' E 000°43'3 2.2
2017-Oct-14 17:53N 50°35' E 000°48'3 1.8
2017-Oct-14 16:28N 50°36' E 000°51'910.3
2017-Oct-14 15:38N 50°43' E 000°59'210.2
2017-Oct-14 15:29N 50°45' E 001°01'610.5
2017-Oct-14 14:54N 50°49' E 001°08'511.0
2017-Oct-14 14:27N 50°52' E 001°13'611.6
2017-Oct-14 13:58N 50°56' E 001°19'711.9
2017-Oct-14 13:23N 51°01' E 001°28'411.6
2017-Oct-14 13:00N 51°04' E 001°33'611.4
2017-Oct-14 12:31N 51°08' E 001°38'510.8
2017-Oct-14 12:00N 51°12' E 001°44'510.3
2017-Oct-14 11:30N 51°17' E 001°48'5 9.8
2017-Oct-14 11:00N 51°21' E 001°52'5 9.6
2017-Oct-14 10:30N 51°25' E 001°57'5 9.3
2017-Oct-14 09:58N 51°29' E 002°02'4 9.1
2017-Oct-14 09:30N 51°32' E 002°06'4 9.1
2017-Oct-14 09:00N 51°35' E 002°11'59 9.3
2017-Oct-14 02:37N 52°18' E 003°17'4 9.8
2017-Oct-14 02:10N 52°20' E 003°24'2 9.8
2017-Oct-14 02:00N 52°21' E 003°26'5 9.5
2017-Oct-14 01:30N 52°23' E 003°33'5 9.0
2017-Oct-14 01:00N 52°26' E 003°39'9 8.5
2017-Oct-13 23:56N 52°31' E 003°52'4 8.3
2017-Oct-13 23:31N 52°31' E 003°57'4 8.5
2017-Oct-13 23:00N 52°31' E 004°05'4 8.6
2017-Oct-13 22:30N 52°31' E 004°12'4 8.7
2017-Oct-13 22:00N 52°30' E 004°19'4 8.5
2017-Oct-13 21:30N 52°29' E 004°25'4 8.2
2017-Oct-13 21:00N 52°28' E 004°32'2 4.6
2017-Oct-13 20:30N 52°28' E 004°36'0 0.0
2017-Oct-13 20:00N 52°28' E 004°36'0 0.0
2017-Oct-13 19:00N 52°28' E 004°36'0 0.0
2017-Oct-13 18:30N 52°28' E 004°36'0 0.0
2017-Oct-13 18:00N 52°28' E 004°36'0 0.0
2017-Oct-13 17:30N 52°28' E 004°36'0 0.0
2017-Oct-13 17:00N 52°28' E 004°36'2 4.5
2017-Oct-13 16:30N 52°28' E 004°32'4 9.0
2017-Oct-13 16:00N 52°30' E 004°26'3 6.4
2017-Oct-13 15:30N 52°33' E 004°22'2 3.3
2017-Oct-13 15:00N 52°31' E 004°24'5 9.3
2017-Oct-13 14:30N 52°29' E 004°30'3 6.7
2017-Oct-13 14:00N 52°27' E 004°35'0 0.0
2017-Oct-13 13:30N 52°27' E 004°35'0 0.0
2017-Oct-13 13:00N 52°27' E 004°35'0 0.0
2017-Oct-13 12:30N 52°27' E 004°35'0 0.0
2017-Oct-13 12:00N 52°27' E 004°35'0 0.0
2017-Oct-13 11:30N 52°27' E 004°35'0 0.0
2017-Oct-13 11:00N 52°27' E 004°35'0 0.0
2017-Oct-13 10:30N 52°27' E 004°35'0 0.0
2017-Oct-13 10:00N 52°27' E 004°35'0 0.0
2017-Oct-13 09:30N 52°27' E 004°35'0 0.0
2017-Oct-13 09:00N 52°27' E 004°35'0 0.0
2017-Oct-13 08:30N 52°27' E 004°35'0 0.0
2017-Oct-13 08:00N 52°27' E 004°35'0 0.0
2017-Oct-13 07:30N 52°27' E 004°35'0 0.0
2017-Oct-13 07:00N 52°27' E 004°35'0 0.0
2017-Oct-13 06:30N 52°27' E 004°35'0 0.0
2017-Oct-13 06:00N 52°27' E 004°35'0 0.0
2017-Oct-13 05:30N 52°27' E 004°35'0 0.0
2017-Oct-13 05:00N 52°27' E 004°35'0 0.0
2017-Oct-13 04:30N 52°27' E 004°35'0 0.0
2017-Oct-13 04:00N 52°27' E 004°35'0 0.0
2017-Oct-13 03:30N 52°27' E 004°35'0 0.0
2017-Oct-13 03:00N 52°27' E 004°35'0 0.0
2017-Oct-13 02:31N 52°27' E 004°35'0 0.0
2017-Oct-13 02:00N 52°27' E 004°35'0 0.0
2017-Oct-13 01:30N 52°27' E 004°35'0 0.0
2017-Oct-13 01:00N 52°27' E 004°35'0 0.0
2017-Oct-13 00:31N 52°27' E 004°35'0 0.0
2017-Oct-13 00:00N 52°27' E 004°35'0 0.0
2017-Oct-12 23:31N 52°27' E 004°35'0 0.0
2017-Oct-12 23:00N 52°27' E 004°35'0 0.0
2017-Oct-12 22:30N 52°27' E 004°35'0 0.0
2017-Oct-12 21:30N 52°27' E 004°35'0 0.0
2017-Oct-12 21:00N 52°27' E 004°35'0 0.0
2017-Oct-12 20:30N 52°27' E 004°35'0 0.0
2017-Oct-12 20:00N 52°27' E 004°35'0 0.0
2017-Oct-12 19:30N 52°27' E 004°35'0 0.0
2017-Oct-12 19:00N 52°27' E 004°35'0 0.0
2017-Oct-12 18:30N 52°27' E 004°35'0 0.0
2017-Oct-12 18:00N 52°27' E 004°35'0 0.0
2017-Oct-12 17:30N 52°27' E 004°35'0 0.0
2017-Oct-12 17:00N 52°27' E 004°35'0 0.0
2017-Oct-12 16:30N 52°27' E 004°35'0 0.0
2017-Oct-12 16:00N 52°27' E 004°35'0 0.0
2017-Oct-12 15:30N 52°27' E 004°35'0 0.0
2017-Oct-12 15:00N 52°27' E 004°35'0 0.0
2017-Oct-12 14:30N 52°27' E 004°35'0 0.0
2017-Oct-12 14:00N 52°27' E 004°35'0 0.0
2017-Oct-12 13:30N 52°27' E 004°35'0 0.0
2017-Oct-12 13:00N 52°27' E 004°35'3 5.6
2017-Oct-12 12:31N 52°29' E 004°31'611.2
2017-Oct-12 12:00N 52°34' E 004°29'611.2
2017-Oct-12 11:30N 52°40' E 004°29'510.8
2017-Oct-12 11:00N 52°45' E 004°28'510.4
2017-Oct-12 10:30N 52°50' E 004°28'5 9.8
2017-Oct-12 10:00N 52°55' E 004°27'5 8.8
2017-Oct-12 09:30N 52°59' E 004°30'25 9.1
2017-Oct-12 06:43N 53°22' E 004°47'210.1
2017-Oct-12 06:30N 53°25' E 004°49'  
Track history (hours):
 
Tides and Currents Weather Stations Pressure Air Temp Water Temp Dewpoint Dewpoint Depression Visibility Wind Speed Wind Dir Waves Ship Positions

Veersedijk

Last reported at 2017-Oct-19 13:22 UTC. Time now 2017-Oct-19 15:14 UTC.
Position N 50°38' E 000°51'.

Length 132 m; draft 5.2 m.

Type: Cargo ship. MMSI: 244268000.

Date/timePositionNaut miles runAvg speedWind from/ knotsBaromVisibWave heightAir tempDewpointWater temp
2017-Oct-19 13:22N 50°38' E 000°51'0 0.1
2017-Oct-19 12:04N 50°38' E 000°51'3 1.3
2017-Oct-19 09:49N 50°35' E 000°49'5 2.4
2017-Oct-19 07:46N 50°30' E 000°50'1 1.7
2017-Oct-19 07:26N 50°30' E 000°49'0 0.1
2017-Oct-19 06:31N 50°30' E 000°49'0 2.3
2017-Oct-19 06:28N 50°30' E 000°49'2 2.2
2017-Oct-19 05:47N 50°28' E 000°49'5 0.1
2017-Oct-17 14:39N 50°30' E 000°40'2 0.4
2017-Oct-17 10:08N 50°32' E 000°40'7 5.3
2017-Oct-17 08:55N 50°35' E 000°48'2 1.7
2017-Oct-17 07:26N 50°34' E 000°45'1 1.3
2017-Oct-17 06:47N 50°33' E 000°44'48 2.2
2017-Oct-16 09:15N 50°10' W 000°22'0 1.6
2017-Oct-16 08:57N 50°10' W 000°22'0 0.8
2017-Oct-16 08:29N 50°10' W 000°23'0 0.5
2017-Oct-16 07:46N 50°10' W 000°23'2 6.8
2017-Oct-16 07:29N 50°08' W 000°21'0 0.8
2017-Oct-16 07:01N 50°08' W 000°21'0 0.6
2017-Oct-16 06:30N 50°08' W 000°22'4 2.3
2017-Oct-16 04:34N 50°07' W 000°15'0 0.4
2017-Oct-16 04:30N 50°07' W 000°15'4 1.2
2017-Oct-16 01:22N 50°11' W 000°15'2 1.5
2017-Oct-15 23:41N 50°13' W 000°13'0 1.5
2017-Oct-15 23:23N 50°13' W 000°13'1 1.4
2017-Oct-15 23:00N 50°13' W 000°12'1 1.5
2017-Oct-15 22:30N 50°14' W 000°11'1 1.7
2017-Oct-15 22:00N 50°15' W 000°11'1 1.9
2017-Oct-15 21:26N 50°15' W 000°09'3 6.6
2017-Oct-15 21:00N 50°17' W 000°06'3 6.0
2017-Oct-15 20:28N 50°20' W 000°04'3 6.2
2017-Oct-15 20:00N 50°23' W 000°04'3 5.9
2017-Oct-15 19:31N 50°26' W 000°02'3 5.5
2017-Oct-15 18:59N 50°28' W 000°01'2 4.3
2017-Oct-15 18:29N 50°30' W 000°00'1 1.8
2017-Oct-15 18:00N 50°30' W 000°02'0 1.0
2017-Oct-15 17:31N 50°30' W 000°02'1 2.5
2017-Oct-15 17:00N 50°30' W 000°04'1 2.3
2017-Oct-15 16:30N 50°31' W 000°03'0 0.9
2017-Oct-15 16:00N 50°31' W 000°04'1 1.7
2017-Oct-15 15:30N 50°31' W 000°05'1 2.1
2017-Oct-15 15:00N 50°31' W 000°07'3 2.7
2017-Oct-15 14:00N 50°28' W 000°05'1 2.3
2017-Oct-15 13:30N 50°28' W 000°03'0 0.9
2017-Oct-15 13:00N 50°28' W 000°03'1 3.0
2017-Oct-15 12:30N 50°29' W 000°01'3 5.5
2017-Oct-15 12:00N 50°27' W 000°04'1 1.6
2017-Oct-15 11:23N 50°27' W 000°03'0 0.9
2017-Oct-15 11:00N 50°27' W 000°03'1 2.6
2017-Oct-15 10:30N 50°28' W 000°01'1 2.3
2017-Oct-15 10:00N 50°27' E 000°00'2 3.6
2017-Oct-15 09:22N 50°26' E 000°04'1 1.4
2017-Oct-15 08:42N 50°26' E 000°05'0 1.7
2017-Oct-15 08:28N 50°26' E 000°05'0 0.6
2017-Oct-15 07:56N 50°25' E 000°05'1 1.8
2017-Oct-15 07:30N 50°26' E 000°04'1 2.6
2017-Oct-15 07:00N 50°25' E 000°06'0 0.6
2017-Oct-15 06:28N 50°25' E 000°05'0 0.8
2017-Oct-15 06:00N 50°24' E 000°05'0 0.9
2017-Oct-15 05:28N 50°24' E 000°05'1 0.9
2017-Oct-15 04:48N 50°24' E 000°06'0 1.2
2017-Oct-15 04:29N 50°24' E 000°06'3 2.1
2017-Oct-15 03:06N 50°25' E 000°11'0 1.3
2017-Oct-15 02:47N 50°25' E 000°11'17 2.7
2017-Oct-14 20:18N 50°32' E 000°36'5 4.4
2017-Oct-14 19:07N 50°34' E 000°43'3 2.2
2017-Oct-14 17:53N 50°35' E 000°48'3 1.8
2017-Oct-14 16:28N 50°36' E 000°51'910.3
2017-Oct-14 15:38N 50°43' E 000°59'210.2
2017-Oct-14 15:29N 50°45' E 001°01'610.5
2017-Oct-14 14:54N 50°49' E 001°08'511.0
2017-Oct-14 14:27N 50°52' E 001°13'611.6
2017-Oct-14 13:58N 50°56' E 001°19'711.9
2017-Oct-14 13:23N 51°01' E 001°28'411.6
2017-Oct-14 13:00N 51°04' E 001°33'611.4
2017-Oct-14 12:31N 51°08' E 001°38'510.8
2017-Oct-14 12:00N 51°12' E 001°44'510.3
2017-Oct-14 11:30N 51°17' E 001°48'5 9.8
2017-Oct-14 11:00N 51°21' E 001°52'5 9.6
2017-Oct-14 10:30N 51°25' E 001°57'5 9.3
2017-Oct-14 09:58N 51°29' E 002°02'4 9.1
2017-Oct-14 09:30N 51°32' E 002°06'4 9.1
2017-Oct-14 09:00N 51°35' E 002°11'59 9.3
2017-Oct-14 02:37N 52°18' E 003°17'4 9.8
2017-Oct-14 02:10N 52°20' E 003°24'2 9.8
2017-Oct-14 02:00N 52°21' E 003°26'5 9.5
2017-Oct-14 01:30N 52°23' E 003°33'5 9.0
2017-Oct-14 01:00N 52°26' E 003°39'9 8.5
2017-Oct-13 23:56N 52°31' E 003°52'4 8.3
2017-Oct-13 23:31N 52°31' E 003°57'4 8.5
2017-Oct-13 23:00N 52°31' E 004°05'4 8.6
2017-Oct-13 22:30N 52°31' E 004°12'4 8.7
2017-Oct-13 22:00N 52°30' E 004°19'4 8.5
2017-Oct-13 21:30N 52°29' E 004°25'4 8.2
2017-Oct-13 21:00N 52°28' E 004°32'2 4.6
2017-Oct-13 20:30N 52°28' E 004°36'0 0.0
2017-Oct-13 20:00N 52°28' E 004°36'0 0.0
2017-Oct-13 19:00N 52°28' E 004°36'0 0.0
2017-Oct-13 18:30N 52°28' E 004°36'0 0.0
2017-Oct-13 18:00N 52°28' E 004°36'0 0.0
2017-Oct-13 17:30N 52°28' E 004°36'0 0.0
2017-Oct-13 17:00N 52°28' E 004°36'2 4.5
2017-Oct-13 16:30N 52°28' E 004°32'4 9.0
2017-Oct-13 16:00N 52°30' E 004°26'3 6.4
2017-Oct-13 15:30N 52°33' E 004°22'2 3.3
2017-Oct-13 15:00N 52°31' E 004°24'5 9.3
2017-Oct-13 14:30N 52°29' E 004°30'3 6.7
2017-Oct-13 14:00N 52°27' E 004°35'0 0.0
2017-Oct-13 13:30N 52°27' E 004°35'0 0.0
2017-Oct-13 13:00N 52°27' E 004°35'0 0.0
2017-Oct-13 12:30N 52°27' E 004°35'0 0.0
2017-Oct-13 12:00N 52°27' E 004°35'0 0.0
2017-Oct-13 11:30N 52°27' E 004°35'0 0.0
2017-Oct-13 11:00N 52°27' E 004°35'0 0.0
2017-Oct-13 10:30N 52°27' E 004°35'0 0.0
2017-Oct-13 10:00N 52°27' E 004°35'0 0.0
2017-Oct-13 09:30N 52°27' E 004°35'0 0.0
2017-Oct-13 09:00N 52°27' E 004°35'0 0.0
2017-Oct-13 08:30N 52°27' E 004°35'0 0.0
2017-Oct-13 08:00N 52°27' E 004°35'0 0.0
2017-Oct-13 07:30N 52°27' E 004°35'0 0.0
2017-Oct-13 07:00N 52°27' E 004°35'0 0.0
2017-Oct-13 06:30N 52°27' E 004°35'0 0.0
2017-Oct-13 06:00N 52°27' E 004°35'0 0.0
2017-Oct-13 05:30N 52°27' E 004°35'0 0.0
2017-Oct-13 05:00N 52°27' E 004°35'0 0.0
2017-Oct-13 04:30N 52°27' E 004°35'0 0.0
2017-Oct-13 04:00N 52°27' E 004°35'0 0.0
2017-Oct-13 03:30N 52°27' E 004°35'0 0.0
2017-Oct-13 03:00N 52°27' E 004°35'0 0.0
2017-Oct-13 02:31N 52°27' E 004°35'0 0.0
2017-Oct-13 02:00N 52°27' E 004°35'0 0.0
2017-Oct-13 01:30N 52°27' E 004°35'0 0.0
2017-Oct-13 01:00N 52°27' E 004°35'0 0.0
2017-Oct-13 00:31N 52°27' E 004°35'0 0.0
2017-Oct-13 00:00N 52°27' E 004°35'0 0.0
2017-Oct-12 23:31N 52°27' E 004°35'0 0.0
2017-Oct-12 23:00N 52°27' E 004°35'0 0.0
2017-Oct-12 22:30N 52°27' E 004°35'0 0.0
2017-Oct-12 21:30N 52°27' E 004°35'0 0.0
2017-Oct-12 21:00N 52°27' E 004°35'0 0.0
2017-Oct-12 20:30N 52°27' E 004°35'0 0.0
2017-Oct-12 20:00N 52°27' E 004°35'0 0.0
2017-Oct-12 19:30N 52°27' E 004°35'0 0.0
2017-Oct-12 19:00N 52°27' E 004°35'0 0.0
2017-Oct-12 18:30N 52°27' E 004°35'0 0.0
2017-Oct-12 18:00N 52°27' E 004°35'0 0.0
2017-Oct-12 17:30N 52°27' E 004°35'0 0.0
2017-Oct-12 17:00N 52°27' E 004°35'0 0.0
2017-Oct-12 16:30N 52°27' E 004°35'0 0.0
2017-Oct-12 16:00N 52°27' E 004°35'0 0.0
2017-Oct-12 15:30N 52°27' E 004°35'0 0.0
2017-Oct-12 15:00N 52°27' E 004°35'0 0.0
2017-Oct-12 14:30N 52°27' E 004°35'0 0.0
2017-Oct-12 14:00N 52°27' E 004°35'0 0.0
2017-Oct-12 13:30N 52°27' E 004°35'0 0.0
2017-Oct-12 13:00N 52°27' E 004°35'3 5.6
2017-Oct-12 12:31N 52°29' E 004°31'611.2
2017-Oct-12 12:00N 52°34' E 004°29'611.2
2017-Oct-12 11:30N 52°40' E 004°29'510.8
2017-Oct-12 11:00N 52°45' E 004°28'510.4
2017-Oct-12 10:30N 52°50' E 004°28'5 9.8
2017-Oct-12 10:00N 52°55' E 004°27'5 8.8
2017-Oct-12 09:30N 52°59' E 004°30'25 9.1
2017-Oct-12 06:43N 53°22' E 004°47'210.1
2017-Oct-12 06:30N 53°25' E 004°49'  

Dump ship's entire track history